Historyczne dane pomiarowe

Dodano dane terminowe – wersja testowa.

Dane z okresu 1951-2019

Wersja bazy: 1.34 [2019-03-16, lista zmian], aktualizacja planowana na 2019-04-15

Dane meteo z obszaru Polski uzyskane na podstawie danych udostępnionych przez Instytut Meteorologii i Gospodarki Wodnej – Państwowy Instytut Badawczy.

 

Wybierz Datę:    

       

TemperaturaWilgotnośćWiatrCiśnienieOpadyŚniegCzas trwania zjawisk
 Stacja t tx tn tng RH VA  wxwx mslp ppp RRR   cm mm wxwxwxwxwxwxwx
2019-06-19 21.9 29.2 17.1--- 5.0 2.0---- 1.5------------
2019-06-18 19.4 24.4 11.5--- 5.3 2.0---- 0.0------------
2019-06-17 18.7 21.9 15.7--- 6.0 0.7---- 0.0------------
2019-06-16 23.2 31.1 18.4--- 4.0 2.3---- 15.7------------
2019-06-15 26.1 33.2 18.3--- 2.0 2.7---- 0.0------------
2019-06-14 24.0 30.1 17.5--- 2.7 2.0---- 0.0------------
2019-06-13 24.3 31.6 15.2--- 2.3 2.7---- 0.0------------
2019-06-12 24.5 31.4 15.2--- 0.7 3.3---- 0.0------------
2019-06-11 24.6 30.9 16.0--- 3.0 4.0---- 0.0------------
2019-06-10 23.0 29.4 15.9--- 1.7 3.7---- 0.0------------
2019-06-09 20.0 25.0 12.7--- 1.0 2.0---- 0.0------------
2019-06-08 21.6 28.7 12.9--- 3.3 2.3---- 0.0------------
2019-06-07 19.6 26.0 12.6--- 1.3 1.3---- 0.0------------
2019-06-06 19.7 25.1 13.8--- 3.7 2.0---- 0.0------------
2019-06-05 21.0 26.1 14.3--- 2.3 3.7---- 0.0------------
2019-06-04 21.5 27.1 14.4--- 2.3 2.0---- 5.1------------
2019-06-03 19.7 26.1 9.3--- 0.7 3.0---- 0.0------------
2019-06-02 19.0 26.8 9.8--- 3.0 2.0---- 0.0------------
2019-06-01 18.1 23.9 8.2--- 3.3 1.3---- 0.0------------
2019-05-31 16.1 22.4 10.0--- 3.0 1.0---- 0.0------------
2019-05-30 12.9 16.2 9.8--- 8.0 1.7---- 0.6------------
2019-05-29 14.3 19.7 11.8--- 8.0 2.3---- 0.5------------
2019-05-28 19.0 22.8 15.0--- 5.0 2.7---- 0.0------------
2019-05-27 17.6 25.1 8.9--- 5.3 2.0---- 9.0------------
2019-05-26 16.2 21.9 8.9--- 5.3 2.3---- 0.0------------
2019-05-25 16.9 22.7 11.6--- 4.7 2.0---- 0.0------------
2019-05-24 14.2 15.9 12.9--- 8.0 1.3---- 0.3------------
2019-05-23 14.5 19.0 10.2--- 8.0 2.7---- 8.2------------
2019-05-22 13.5 15.5 12.1--- 7.7 2.0---- 0.6------------
2019-05-21 14.8 18.1 12.4--- 8.0 1.3---- 31.9------------
2019-05-20 17.9 21.4 14.3--- 5.0 3.0---- 0.0------------
2019-05-19 17.4 22.7 14.6--- 4.7 2.7---- 3.9------------
2019-05-18 18.0 23.7 11.4--- 4.0 1.7---- 1.2------------
2019-05-17 16.6 21.5 12.4--- 6.7 2.0---- 1.2------------
2019-05-16 12.8 17.4 9.4--- 7.3 2.3---- 2.8------------
2019-05-15 9.5 11.9 6.5--- 8.0 3.0---- 4.1------------
2019-05-14 6.3 8.5 4.4--- 8.0 3.0---- 13.6------------
2019-05-13 9.2 13.3 7.3--- 8.0 2.7---- 2.9------------
2019-05-12 14.0 21.3 6.7--- 7.0 2.3---- 1.4------------
2019-05-11 13.2 19.2 6.7--- 4.7 1.7---- 0.0------------
2019-05-10 12.0 18.4 6.9--- 8.0 1.3---- 0.0------------
2019-05-09 9.7 13.9 4.0--- 8.0 3.3---- 0.8------------
2019-05-08 8.4 15.2 -0.7--- 3.3 2.0---- 0.0------------
2019-05-07 9.0 12.2 6.3--- 5.0 2.3---- 0.0------------
2019-05-06 8.0 10.4 5.5--- 8.0 3.3---- 0.0------------
2019-05-05 7.4 10.9 5.7--- 8.0 3.3---- 1.1------------
2019-05-04 8.5 15.1 1.3--- 4.3 2.0---- 0.0------------
2019-05-03 9.4 15.1 5.0--- 8.0 1.3---- 2.5------------
2019-05-02 13.2 18.9 7.9--- 4.7 5.0---- 0.2------------
2019-05-01 11.0 17.9 5.4--- 4.3 1.3---- 0.0------------
2019-04-30 11.1 13.2 9.6--- 8.0 2.7---- 0.7------------
2019-04-29 11.0 12.9 8.7--- 8.0 1.0---- 9.6------------
2019-04-28 10.5 13.1 9.4--- 8.0 1.7---- 18.2------------
2019-04-27 14.0 20.5 8.2--- 8.0 3.0---- 4.0------------
2019-04-26 17.5 27.1 6.4--- 4.0 2.0---- 0.0------------
2019-04-25 17.3 24.9 8.8--- 2.7 3.0---- 0.0------------
2019-04-24 14.2 18.4 10.2--- 4.0 4.7---- 0.0------------
2019-04-23 12.0 18.6 6.2--- 7.7 5.7---- 0.0------------
2019-04-22 11.4 16.4 6.8--- 4.0 4.7---- 0.0------------
2019-04-21 9.7 17.4 1.8--- 6.0 1.3---- 1.6------------
207.1 ms

 

Źródłem pochodzenia danych jest Instytut Meteorologii i Gospodarki Wodnej – Państwowy Instytut Badawczy. Dane Instytutu Meteorologii i Gospodarki Wodnej – Państwowego Instytutu Badawczego zostały przetworzone.

Dane źródłowe można odnaleźć na stronie https://dane.imgw.pl